Terminal Aerodrome Forecast
Issued by NWS Cleveland, OH

Home | Current Version | Previous Version | Text Only | Print | Product List | Glossary On
Versions: 1 2 3 4 5 6 7 8 9 10 11 12 13 14 15 16 17 18
000
FTUS41 KCLE 311700
TAFERI
TAF
KERI 311737Z 3118/0118 23008KT P6SM VCSH SCT025 OVC035
      TEMPO 3119/3121 5SM -SHRA SCT015 OVC020
     FM312100 05010KT 4SM -SHRA BR SCT008 OVC015
     FM010400 02012G20KT 3SM -SHRA BR SCT008 OVC015
     FM011200 36015G25KT 3SM -SHRA BR OVC007
     FM011500 35015G25KT 3SM -SHRA BR OVC006=

USA.gov is the U.S. government's official web portal to all federal, state and local government web resources and services.